Pongnae — 3FDZ8 — position and weather

sailwx.info

Track history (hours):
 
Tides and Currents Weather Stations Pressure Air Temp Water Temp Dewpoint Dewpoint Depression Visibility Wind Speed Wind Dir Waves Ship Positions

Pongnae

Operator: V Ships Leisure SAM

Last reported at 2016-Jun-25 13:16 UTC. Time now 2016-Jun-25 23:18 UTC.
Position N 22°12' E 114°21'.

Length 171 m; draft 6.6 m.

Type: Passenger vessel. MMSI: 353669000.

Date/timePositionNaut miles runAvg speedWind from/ knotsBaromVisibWave heightAir tempDewpointWater temp
2016-Jun-25 13:16N 22°12' E 114°21'710.4
2016-Jun-25 12:33N 22°17' E 114°15'2 1.7
2016-Jun-25 11:33N 22°18' E 114°13'0 0.0
2016-Jun-25 10:33N 22°18' E 114°13'0 0.1
2016-Jun-25 09:33N 22°18' E 114°13'0 0.1
2016-Jun-25 08:33N 22°18' E 114°13'0 0.1
2016-Jun-25 07:33N 22°18' E 114°13'0 0.0
2016-Jun-25 06:33N 22°18' E 114°13'0 0.1
2016-Jun-25 05:33N 22°18' E 114°13'0 0.0
2016-Jun-25 04:33N 22°18' E 114°13'0 0.1
2016-Jun-25 03:33N 22°18' E 114°13'0 0.0
2016-Jun-25 02:32N 22°18' E 114°13'0 0.0
2016-Jun-25 01:32N 22°18' E 114°13'0 0.0
2016-Jun-25 00:32N 22°18' E 114°13'7 0.6
2016-Jun-24 13:08N 22°13' E 114°18'6 9.9
2016-Jun-24 12:33N 22°17' E 114°14'1 0.9
2016-Jun-24 11:31N 22°18' E 114°13'0 0.1
2016-Jun-24 10:31N 22°18' E 114°13'0 0.0
2016-Jun-24 09:31N 22°18' E 114°13'0 0.0
2016-Jun-24 08:31N 22°18' E 114°13'0 0.0
2016-Jun-24 07:31N 22°18' E 114°13'0 0.0
2016-Jun-24 04:31N 22°18' E 114°13'0 0.0
2016-Jun-24 03:31N 22°18' E 114°13'0 0.1
2016-Jun-24 02:25N 22°18' E 114°13'0 0.0
2016-Jun-24 01:33N 22°18' E 114°13'0 0.0
2016-Jun-24 00:33N 22°18' E 114°13'2 2.2
2016-Jun-23 23:33N 22°17' E 114°15'6 0.5
2016-Jun-23 13:12N 22°12' E 114°19'710.2
2016-Jun-23 12:33N 22°17' E 114°14'1 1.1
2016-Jun-23 11:32N 22°18' E 114°13'0 0.1
2016-Jun-23 10:32N 22°18' E 114°13'0 0.0
2016-Jun-23 09:32N 22°18' E 114°13'0 0.0
2016-Jun-23 08:32N 22°18' E 114°13'0 0.1
2016-Jun-23 07:32N 22°18' E 114°13'0 0.0
2016-Jun-23 05:32N 22°18' E 114°13'0 0.0
2016-Jun-23 04:32N 22°18' E 114°13'0 0.0
2016-Jun-23 03:32N 22°18' E 114°13'0 0.1
2016-Jun-23 02:32N 22°18' E 114°13'0 0.0
2016-Jun-23 01:32N 22°18' E 114°13'0 0.1
2016-Jun-23 00:32N 22°18' E 114°13'3 2.6
2016-Jun-22 23:33N 22°16' E 114°16'4 0.4
2016-Jun-22 13:06N 22°13' E 114°18'510.1
2016-Jun-22 12:33N 22°17' E 114°14'1 0.9
2016-Jun-22 11:33N 22°18' E 114°13'0 0.0
2016-Jun-22 10:25N 22°18' E 114°13'0 0.1
2016-Jun-22 09:31N 22°18' E 114°13'0 0.1
2016-Jun-22 08:31N 22°18' E 114°13'0 0.1
2016-Jun-22 07:28N 22°18' E 114°13'0 0.0
2016-Jun-22 06:34N 22°18' E 114°13'0 0.0
2016-Jun-22 05:33N 22°18' E 114°13'0 0.0
2016-Jun-22 04:33N 22°18' E 114°13'0 0.0
2016-Jun-22 03:33N 22°18' E 114°13'0 0.0
2016-Jun-22 02:33N 22°18' E 114°13'0 0.1
2016-Jun-22 01:33N 22°18' E 114°13'0 0.0
2016-Jun-22 00:33N 22°18' E 114°13'6 0.6
2016-Jun-21 13:04N 22°13' E 114°18'510.1
2016-Jun-21 12:33N 22°17' E 114°14'1 1.2
2016-Jun-21 11:33N 22°18' E 114°13'0 0.0
2016-Jun-21 10:33N 22°18' E 114°13'0 0.0
2016-Jun-21 09:33N 22°18' E 114°13'0 0.1
2016-Jun-21 08:33N 22°18' E 114°13'0 0.1
2016-Jun-21 07:33N 22°18' E 114°13'0 0.0
2016-Jun-21 05:33N 22°18' E 114°13'0 0.0
2016-Jun-21 04:33N 22°18' E 114°13'0 0.0
2016-Jun-21 03:33N 22°18' E 114°13'0 0.0
2016-Jun-21 02:33N 22°18' E 114°13'0 0.1
2016-Jun-21 01:33N 22°18' E 114°13'0 0.0
2016-Jun-21 00:33N 22°18' E 114°13'3 2.5
2016-Jun-20 23:33N 22°16' E 114°16'0 0.0
2016-Jun-20 12:31N 22°17' E 114°15'2 2.2
2016-Jun-20 11:33N 22°18' E 114°13'0 0.0
2016-Jun-20 10:33N 22°18' E 114°13'0 0.0
2016-Jun-20 09:33N 22°18' E 114°13'0 0.0
2016-Jun-20 08:33N 22°18' E 114°13'0 0.0
2016-Jun-20 07:33N 22°18' E 114°13'0 0.1
2016-Jun-20 06:33N 22°18' E 114°13'0 0.1
2016-Jun-20 05:33N 22°18' E 114°13'0 0.1
2016-Jun-20 04:33N 22°18' E 114°13'0 0.1
2016-Jun-20 03:33N 22°18' E 114°13'0 0.0
2016-Jun-20 02:33N 22°18' E 114°13'0 0.1
2016-Jun-20 01:33N 22°18' E 114°13'0 0.1
2016-Jun-20 00:33N 22°18' E 114°13'3 2.6
2016-Jun-19 23:32N 22°16' E 114°16'3 0.2
2016-Jun-19 06:23N 22°18' E 114°13'0 0.0
2016-Jun-19 04:20N 22°18' E 114°13'0 0.0
2016-Jun-19 02:34N 22°18' E 114°13'0 0.1
2016-Jun-19 01:34N 22°18' E 114°13'0 0.1
2016-Jun-19 00:34N 22°18' E 114°13'1 1.1
2016-Jun-18 23:33N 22°17' E 114°14'6 0.6
2016-Jun-18 13:05N 22°12' E 114°18'610.7
2016-Jun-18 12:34N 22°17' E 114°14'1 1.4
2016-Jun-18 11:33N 22°18' E 114°13'0 0.0
2016-Jun-18 10:33N 22°18' E 114°13'0 0.1
2016-Jun-18 09:33N 22°18' E 114°13'0 0.0
2016-Jun-18 08:33N 22°18' E 114°13'0 0.0
2016-Jun-18 07:33N 22°18' E 114°13'0 0.1
2016-Jun-18 06:33N 22°18' E 114°13'0 0.0
2016-Jun-18 05:33N 22°18' E 114°13'0 0.0
2016-Jun-18 04:30N 22°18' E 114°13'0 0.0
2016-Jun-18 03:33N 22°18' E 114°13'0 0.1
2016-Jun-18 02:33N 22°18' E 114°13'0 0.1
2016-Jun-18 01:33N 22°18' E 114°13'0 0.1
2016-Jun-18 00:34N 22°18' E 114°13'2 1.8
2016-Jun-17 23:33N 22°17' E 114°15'1 0.0
2016-Jun-17 12:33N 22°16' E 114°15'2 2.4
2016-Jun-17 11:34N 22°18' E 114°13'0 0.0
2016-Jun-17 10:33N 22°18' E 114°13'0 0.0
2016-Jun-17 09:33N 22°18' E 114°13'0 0.1
2016-Jun-17 08:33N 22°18' E 114°13'0 0.0
2016-Jun-17 07:33N 22°18' E 114°13'0 0.0
2016-Jun-17 06:30N 22°18' E 114°13'0 0.1
2016-Jun-17 05:33N 22°18' E 114°13'0 0.0
2016-Jun-17 04:33N 22°18' E 114°13'0 0.0
2016-Jun-17 03:33N 22°18' E 114°13'0 0.0
2016-Jun-17 02:33N 22°18' E 114°13'0 0.0
2016-Jun-17 01:33N 22°18' E 114°13'0 0.1
2016-Jun-17 00:33N 22°18' E 114°13'1 1.1
2016-Jun-16 23:33N 22°17' E 114°14'0 0.0
2016-Jun-16 12:33N 22°17' E 114°15'1 1.5
2016-Jun-16 11:33N 22°18' E 114°13'0 0.1
2016-Jun-16 10:31N 22°18' E 114°13'0 0.0
2016-Jun-16 09:34N 22°18' E 114°13'0 0.0
2016-Jun-16 08:31N 22°18' E 114°13'0 0.0
2016-Jun-16 07:31N 22°18' E 114°13'0 0.0
2016-Jun-16 06:34N 22°18' E 114°13'0 0.0
2016-Jun-16 05:33N 22°18' E 114°13'0 0.0
2016-Jun-16 04:33N 22°18' E 114°13'0 0.0
2016-Jun-16 01:33N 22°18' E 114°13'0 0.1
2016-Jun-16 00:33N 22°18' E 114°13'4 3.6
2016-Jun-15 23:33N 22°15' E 114°16'3 0.3
2016-Jun-15 13:28N 22°12' E 114°18'  
Track history (hours):
 
Tides and Currents Weather Stations Pressure Air Temp Water Temp Dewpoint Dewpoint Depression Visibility Wind Speed Wind Dir Waves Ship Positions

Pongnae

Operator: V Ships Leisure SAM

Last reported at 2016-Jun-25 13:16 UTC. Time now 2016-Jun-25 23:18 UTC.
Position N 22°12' E 114°21'.

Length 171 m; draft 6.6 m.

Type: Passenger vessel. MMSI: 353669000.

Date/timePositionNaut miles runAvg speedWind from/ knotsBaromVisibWave heightAir tempDewpointWater temp
2016-Jun-25 13:16N 22°12' E 114°21'710.4
2016-Jun-25 12:33N 22°17' E 114°15'2 1.7
2016-Jun-25 11:33N 22°18' E 114°13'0 0.0
2016-Jun-25 10:33N 22°18' E 114°13'0 0.1
2016-Jun-25 09:33N 22°18' E 114°13'0 0.1
2016-Jun-25 08:33N 22°18' E 114°13'0 0.1
2016-Jun-25 07:33N 22°18' E 114°13'0 0.0
2016-Jun-25 06:33N 22°18' E 114°13'0 0.1
2016-Jun-25 05:33N 22°18' E 114°13'0 0.0
2016-Jun-25 04:33N 22°18' E 114°13'0 0.1
2016-Jun-25 03:33N 22°18' E 114°13'0 0.0
2016-Jun-25 02:32N 22°18' E 114°13'0 0.0
2016-Jun-25 01:32N 22°18' E 114°13'0 0.0
2016-Jun-25 00:32N 22°18' E 114°13'7 0.6
2016-Jun-24 13:08N 22°13' E 114°18'6 9.9
2016-Jun-24 12:33N 22°17' E 114°14'1 0.9
2016-Jun-24 11:31N 22°18' E 114°13'0 0.1
2016-Jun-24 10:31N 22°18' E 114°13'0 0.0
2016-Jun-24 09:31N 22°18' E 114°13'0 0.0
2016-Jun-24 08:31N 22°18' E 114°13'0 0.0
2016-Jun-24 07:31N 22°18' E 114°13'0 0.0
2016-Jun-24 04:31N 22°18' E 114°13'0 0.0
2016-Jun-24 03:31N 22°18' E 114°13'0 0.1
2016-Jun-24 02:25N 22°18' E 114°13'0 0.0
2016-Jun-24 01:33N 22°18' E 114°13'0 0.0
2016-Jun-24 00:33N 22°18' E 114°13'2 2.2
2016-Jun-23 23:33N 22°17' E 114°15'6 0.5
2016-Jun-23 13:12N 22°12' E 114°19'710.2
2016-Jun-23 12:33N 22°17' E 114°14'1 1.1
2016-Jun-23 11:32N 22°18' E 114°13'0 0.1
2016-Jun-23 10:32N 22°18' E 114°13'0 0.0
2016-Jun-23 09:32N 22°18' E 114°13'0 0.0
2016-Jun-23 08:32N 22°18' E 114°13'0 0.1
2016-Jun-23 07:32N 22°18' E 114°13'0 0.0
2016-Jun-23 05:32N 22°18' E 114°13'0 0.0
2016-Jun-23 04:32N 22°18' E 114°13'0 0.0
2016-Jun-23 03:32N 22°18' E 114°13'0 0.1
2016-Jun-23 02:32N 22°18' E 114°13'0 0.0
2016-Jun-23 01:32N 22°18' E 114°13'0 0.1
2016-Jun-23 00:32N 22°18' E 114°13'3 2.6
2016-Jun-22 23:33N 22°16' E 114°16'4 0.4
2016-Jun-22 13:06N 22°13' E 114°18'510.1
2016-Jun-22 12:33N 22°17' E 114°14'1 0.9
2016-Jun-22 11:33N 22°18' E 114°13'0 0.0
2016-Jun-22 10:25N 22°18' E 114°13'0 0.1
2016-Jun-22 09:31N 22°18' E 114°13'0 0.1
2016-Jun-22 08:31N 22°18' E 114°13'0 0.1
2016-Jun-22 07:28N 22°18' E 114°13'0 0.0
2016-Jun-22 06:34N 22°18' E 114°13'0 0.0
2016-Jun-22 05:33N 22°18' E 114°13'0 0.0
2016-Jun-22 04:33N 22°18' E 114°13'0 0.0
2016-Jun-22 03:33N 22°18' E 114°13'0 0.0
2016-Jun-22 02:33N 22°18' E 114°13'0 0.1
2016-Jun-22 01:33N 22°18' E 114°13'0 0.0
2016-Jun-22 00:33N 22°18' E 114°13'6 0.6
2016-Jun-21 13:04N 22°13' E 114°18'510.1
2016-Jun-21 12:33N 22°17' E 114°14'1 1.2
2016-Jun-21 11:33N 22°18' E 114°13'0 0.0
2016-Jun-21 10:33N 22°18' E 114°13'0 0.0
2016-Jun-21 09:33N 22°18' E 114°13'0 0.1
2016-Jun-21 08:33N 22°18' E 114°13'0 0.1
2016-Jun-21 07:33N 22°18' E 114°13'0 0.0
2016-Jun-21 05:33N 22°18' E 114°13'0 0.0
2016-Jun-21 04:33N 22°18' E 114°13'0 0.0
2016-Jun-21 03:33N 22°18' E 114°13'0 0.0
2016-Jun-21 02:33N 22°18' E 114°13'0 0.1
2016-Jun-21 01:33N 22°18' E 114°13'0 0.0
2016-Jun-21 00:33N 22°18' E 114°13'3 2.5
2016-Jun-20 23:33N 22°16' E 114°16'0 0.0
2016-Jun-20 12:31N 22°17' E 114°15'2 2.2
2016-Jun-20 11:33N 22°18' E 114°13'0 0.0
2016-Jun-20 10:33N 22°18' E 114°13'0 0.0
2016-Jun-20 09:33N 22°18' E 114°13'0 0.0
2016-Jun-20 08:33N 22°18' E 114°13'0 0.0
2016-Jun-20 07:33N 22°18' E 114°13'0 0.1
2016-Jun-20 06:33N 22°18' E 114°13'0 0.1
2016-Jun-20 05:33N 22°18' E 114°13'0 0.1
2016-Jun-20 04:33N 22°18' E 114°13'0 0.1
2016-Jun-20 03:33N 22°18' E 114°13'0 0.0
2016-Jun-20 02:33N 22°18' E 114°13'0 0.1
2016-Jun-20 01:33N 22°18' E 114°13'0 0.1
2016-Jun-20 00:33N 22°18' E 114°13'3 2.6
2016-Jun-19 23:32N 22°16' E 114°16'3 0.2
2016-Jun-19 06:23N 22°18' E 114°13'0 0.0
2016-Jun-19 04:20N 22°18' E 114°13'0 0.0
2016-Jun-19 02:34N 22°18' E 114°13'0 0.1
2016-Jun-19 01:34N 22°18' E 114°13'0 0.1
2016-Jun-19 00:34N 22°18' E 114°13'1 1.1
2016-Jun-18 23:33N 22°17' E 114°14'6 0.6
2016-Jun-18 13:05N 22°12' E 114°18'610.7
2016-Jun-18 12:34N 22°17' E 114°14'1 1.4
2016-Jun-18 11:33N 22°18' E 114°13'0 0.0
2016-Jun-18 10:33N 22°18' E 114°13'0 0.1
2016-Jun-18 09:33N 22°18' E 114°13'0 0.0
2016-Jun-18 08:33N 22°18' E 114°13'0 0.0
2016-Jun-18 07:33N 22°18' E 114°13'0 0.1
2016-Jun-18 06:33N 22°18' E 114°13'0 0.0
2016-Jun-18 05:33N 22°18' E 114°13'0 0.0
2016-Jun-18 04:30N 22°18' E 114°13'0 0.0
2016-Jun-18 03:33N 22°18' E 114°13'0 0.1
2016-Jun-18 02:33N 22°18' E 114°13'0 0.1
2016-Jun-18 01:33N 22°18' E 114°13'0 0.1
2016-Jun-18 00:34N 22°18' E 114°13'2 1.8
2016-Jun-17 23:33N 22°17' E 114°15'1 0.0
2016-Jun-17 12:33N 22°16' E 114°15'2 2.4
2016-Jun-17 11:34N 22°18' E 114°13'0 0.0
2016-Jun-17 10:33N 22°18' E 114°13'0 0.0
2016-Jun-17 09:33N 22°18' E 114°13'0 0.1
2016-Jun-17 08:33N 22°18' E 114°13'0 0.0
2016-Jun-17 07:33N 22°18' E 114°13'0 0.0
2016-Jun-17 06:30N 22°18' E 114°13'0 0.1
2016-Jun-17 05:33N 22°18' E 114°13'0 0.0
2016-Jun-17 04:33N 22°18' E 114°13'0 0.0
2016-Jun-17 03:33N 22°18' E 114°13'0 0.0
2016-Jun-17 02:33N 22°18' E 114°13'0 0.0
2016-Jun-17 01:33N 22°18' E 114°13'0 0.1
2016-Jun-17 00:33N 22°18' E 114°13'1 1.1
2016-Jun-16 23:33N 22°17' E 114°14'0 0.0
2016-Jun-16 12:33N 22°17' E 114°15'1 1.5
2016-Jun-16 11:33N 22°18' E 114°13'0 0.1
2016-Jun-16 10:31N 22°18' E 114°13'0 0.0
2016-Jun-16 09:34N 22°18' E 114°13'0 0.0
2016-Jun-16 08:31N 22°18' E 114°13'0 0.0
2016-Jun-16 07:31N 22°18' E 114°13'0 0.0
2016-Jun-16 06:34N 22°18' E 114°13'0 0.0
2016-Jun-16 05:33N 22°18' E 114°13'0 0.0
2016-Jun-16 04:33N 22°18' E 114°13'0 0.0
2016-Jun-16 01:33N 22°18' E 114°13'0 0.1
2016-Jun-16 00:33N 22°18' E 114°13'4 3.6
2016-Jun-15 23:33N 22°15' E 114°16'3 0.3
2016-Jun-15 13:28N 22°12' E 114°18'  

Dump ship's entire track history